createdAt,value
2023-04-11T00:03:26.899Z,25.39
2023-04-11T00:07:26.950Z,25.31
2023-04-11T00:11:26.772Z,25.34
2023-04-11T00:15:26.901Z,25.33
2023-04-11T00:19:26.955Z,25.38
2023-04-11T00:23:26.681Z,25.38
2023-04-11T00:27:26.916Z,25.34
2023-04-11T00:31:26.660Z,25.38
2023-04-11T00:35:26.948Z,25.39
2023-04-11T00:39:26.955Z,25.34
2023-04-11T00:43:26.975Z,25.39
2023-04-11T00:47:26.967Z,25.35
2023-04-11T00:51:26.561Z,25.38
2023-04-11T00:55:26.544Z,25.38
2023-04-11T00:59:26.938Z,25.35
2023-04-11T01:03:26.626Z,25.36
2023-04-11T01:07:26.516Z,25.38
2023-04-11T01:11:26.505Z,25.36
2023-04-11T01:15:26.966Z,25.36
2023-04-11T01:19:26.965Z,25.38
2023-04-11T01:24:00.602Z,25.43
2023-04-11T01:28:00.351Z,25.35
2023-04-11T01:32:00.588Z,25.39
2023-04-11T01:36:00.307Z,25.35
2023-04-11T01:40:00.575Z,25.38
2023-04-11T01:44:00.588Z,25.34
2023-04-11T01:48:00.285Z,25.39
2023-04-11T01:52:00.097Z,25.32
2023-04-11T01:56:00.078Z,25.35
2023-04-11T02:00:00.184Z,25.33
2023-04-11T02:04:00.296Z,25.38
2023-04-11T02:08:00.121Z,25.35
2023-04-11T02:11:59.895Z,25.33
2023-04-11T02:16:00.204Z,25.36
2023-04-11T02:20:00.149Z,25.35
2023-04-11T02:24:00.751Z,25.35
2023-04-11T02:27:59.750Z,25.36
2023-04-11T02:31:59.785Z,25.37
2023-04-11T02:35:59.725Z,25.37
2023-04-11T02:40:00.162Z,25.37
2023-04-11T02:44:00.153Z,25.35
2023-04-11T02:47:59.636Z,25.35
2023-04-11T02:51:59.563Z,25.33
2023-04-11T02:55:59.601Z,25.40
2023-04-11T02:59:59.635Z,25.36
2023-04-11T03:03:59.726Z,25.33
2023-04-11T03:07:59.606Z,25.36
2023-04-11T03:11:59.332Z,25.33
2023-04-11T03:15:59.665Z,25.37
2023-04-11T03:19:59.623Z,25.33
2023-04-11T03:23:59.619Z,25.33
2023-04-11T03:27:59.648Z,25.35
2023-04-11T03:31:59.334Z,25.32
2023-04-11T03:35:59.652Z,25.38
2023-04-11T03:39:59.631Z,25.32
2023-04-11T03:43:59.661Z,25.26
2023-04-11T03:47:59.428Z,25.36
2023-04-11T03:51:59.656Z,25.32
2023-04-11T03:55:59.637Z,25.32
2023-04-11T03:59:59.626Z,25.33
2023-04-11T04:04:00.082Z,25.36
2023-04-11T04:07:59.486Z,25.32
2023-04-11T04:11:59.497Z,25.36
2023-04-11T04:16:01.219Z,25.34
2023-04-11T04:19:59.504Z,25.34
2023-04-11T04:23:59.656Z,25.32
2023-04-11T04:27:59.369Z,25.36
2023-04-11T04:31:59.699Z,25.34
2023-04-11T04:35:59.698Z,25.32
2023-04-11T04:39:59.642Z,25.37
2023-04-11T04:43:59.250Z,25.31
2023-04-11T04:47:59.215Z,25.37
2023-04-11T04:51:59.657Z,25.29
2023-04-11T04:55:59.175Z,25.37
2023-04-11T04:59:59.162Z,25.34
2023-04-11T05:03:59.836Z,25.41
2023-04-11T05:07:59.006Z,25.35
2023-04-11T05:11:58.979Z,25.35
2023-04-11T05:15:59.188Z,25.34
2023-04-11T05:19:59.176Z,25.32
2023-04-11T05:23:58.881Z,25.33
2023-04-11T05:27:58.843Z,25.33
2023-04-11T05:31:59.178Z,25.36
2023-04-11T05:35:59.215Z,25.33
2023-04-11T05:39:59.184Z,25.36
2023-04-11T05:43:58.678Z,25.34
2023-04-11T05:47:58.726Z,25.34
2023-04-11T05:51:58.713Z,25.42
2023-04-11T05:55:58.857Z,25.37
2023-04-11T05:59:58.651Z,25.37
2023-04-11T06:03:58.831Z,25.41
2023-04-11T06:07:58.700Z,25.38
2023-04-11T06:11:58.430Z,25.40
2023-04-11T06:15:58.753Z,25.38
2023-04-11T06:19:58.696Z,25.34
2023-04-11T06:23:58.309Z,25.38
2023-04-11T06:27:58.714Z,25.38
2023-04-11T06:31:58.702Z,25.36
2023-04-11T06:35:58.254Z,25.38
2023-04-11T06:39:58.224Z,25.38
2023-04-11T06:43:58.334Z,25.36
2023-04-11T06:47:58.233Z,25.40
2023-04-11T06:51:58.194Z,25.40
2023-04-11T06:55:58.310Z,25.38
2023-04-11T06:59:58.320Z,25.41
2023-04-11T07:03:58.348Z,25.41
2023-04-11T07:07:58.112Z,25.38
2023-04-11T07:11:58.086Z,25.35
2023-04-11T07:15:58.392Z,25.44
2023-04-11T07:19:58.039Z,25.38
2023-04-11T07:23:58.323Z,25.37
2023-04-11T07:27:57.995Z,25.37
2023-04-11T07:31:58.456Z,25.38
2023-04-11T07:35:58.278Z,25.37
2023-04-11T07:39:57.972Z,25.44
2023-04-11T07:43:58.518Z,25.39
2023-04-11T07:47:58.005Z,25.39
2023-04-11T07:51:58.270Z,25.40
2023-04-11T07:55:58.239Z,25.42
2023-04-11T07:59:57.946Z,25.44
2023-04-11T08:03:58.762Z,25.43
2023-04-11T08:07:58.246Z,25.42
2023-04-11T08:11:57.954Z,25.42
2023-04-11T08:15:58.219Z,25.42
2023-04-11T08:19:57.908Z,25.42
2023-04-11T08:23:58.511Z,25.43
2023-04-11T08:27:58.246Z,25.42
2023-04-11T08:31:58.243Z,25.44
2023-04-11T08:35:58.284Z,25.39
2023-04-11T08:39:57.780Z,25.44
2023-04-11T08:43:58.465Z,25.44
2023-04-11T08:47:57.828Z,25.44
2023-04-11T08:51:57.967Z,25.41
2023-04-11T08:55:57.750Z,25.43
2023-04-11T08:59:57.765Z,25.48
2023-04-11T09:03:58.080Z,25.48
2023-04-11T09:07:57.710Z,25.45
2023-04-11T09:11:57.733Z,25.43
2023-04-11T09:15:57.746Z,25.43
2023-04-11T09:19:57.784Z,25.41
2023-04-11T09:23:57.829Z,25.44
2023-04-11T09:27:57.776Z,25.42
2023-04-11T09:31:58.281Z,25.35
2023-04-11T09:35:57.633Z,25.40
2023-04-11T09:39:57.833Z,25.47
2023-04-11T09:43:57.730Z,25.42
2023-04-11T09:47:57.846Z,25.41
2023-04-11T09:51:57.759Z,25.39
2023-04-11T09:55:57.557Z,25.38
2023-04-11T09:59:57.790Z,25.31
2023-04-11T10:03:58.360Z,25.29
2023-04-11T10:07:58.332Z,25.26
2023-04-11T10:11:58.029Z,25.26
2023-04-11T10:15:58.213Z,25.26
2023-04-11T10:19:58.304Z,25.25
2023-04-11T10:23:58.422Z,25.16
2023-04-11T10:27:58.087Z,25.22
2023-04-11T10:31:58.147Z,25.27
2023-04-11T10:35:58.375Z,25.16
2023-04-11T10:39:58.302Z,25.11
2023-04-11T10:43:58.548Z,25.06
2023-04-11T10:47:57.920Z,25.03
2023-04-11T10:51:57.852Z,24.95
2023-04-11T10:55:58.320Z,24.89
2023-04-11T10:59:57.803Z,24.93
2023-04-11T11:03:57.939Z,24.89
2023-04-11T11:07:58.296Z,24.92
2023-04-11T11:11:57.902Z,24.88
2023-04-11T11:15:58.315Z,24.87
2023-04-11T11:19:58.310Z,24.86
2023-04-11T11:23:58.648Z,24.88
2023-04-11T11:27:58.323Z,24.88
2023-04-11T11:31:58.051Z,24.86
2023-04-11T11:35:58.329Z,24.87
2023-04-11T11:39:58.327Z,24.87
2023-04-11T11:43:58.447Z,24.86
2023-04-11T11:47:58.476Z,24.93
2023-04-11T11:51:58.160Z,24.88
2023-04-11T11:55:58.330Z,24.93
2023-04-11T11:59:58.343Z,24.94
2023-04-11T12:03:58.746Z,24.90
2023-04-11T12:07:58.341Z,24.86
2023-04-11T12:11:58.277Z,24.92
2023-04-11T12:15:58.380Z,24.87
2023-04-11T12:19:58.342Z,24.93
2023-04-11T12:23:58.529Z,24.84
2023-04-11T12:27:58.237Z,24.87
2023-04-11T12:31:58.355Z,24.90
2023-04-11T12:35:58.355Z,24.90
2023-04-11T12:39:58.368Z,24.87
2023-04-11T12:43:58.412Z,24.88
2023-04-11T12:47:58.268Z,24.93
2023-04-11T12:51:58.336Z,24.89
2023-04-11T12:55:58.380Z,24.93
2023-04-11T12:59:58.352Z,24.93
2023-04-11T13:04:05.476Z,24.91
2023-04-11T13:07:58.148Z,24.92
2023-04-11T13:11:58.378Z,24.94
2023-04-11T13:15:58.462Z,24.95
2023-04-11T13:19:58.040Z,24.98
2023-04-11T13:23:58.554Z,24.93
2023-04-11T13:27:57.993Z,24.96
2023-04-11T13:31:58.559Z,24.93
2023-04-11T13:35:57.934Z,24.91
2023-04-11T13:39:57.850Z,24.90
2023-04-11T13:43:57.899Z,24.90
2023-04-11T13:47:57.822Z,24.91
2023-04-11T13:51:57.957Z,24.88
2023-04-11T13:55:57.903Z,24.87
2023-04-11T13:59:57.901Z,24.85
2023-04-11T14:03:58.125Z,24.85
2023-04-11T14:07:57.911Z,24.80
2023-04-11T14:11:57.935Z,24.84
2023-04-11T14:16:08.124Z,24.80
2023-04-11T14:19:58.687Z,24.82
2023-04-11T14:23:57.881Z,24.75
2023-04-11T14:27:57.642Z,24.83
2023-04-11T14:31:57.953Z,24.87
2023-04-11T14:35:57.565Z,24.78
2023-04-11T14:39:57.906Z,24.85
2023-04-11T14:43:57.792Z,24.82
2023-04-11T14:47:57.431Z,24.82
2023-04-11T14:51:57.415Z,24.79
2023-04-11T14:55:57.346Z,24.82
2023-04-11T14:59:57.451Z,25.35
2023-04-11T15:03:57.840Z,25.37
2023-04-11T15:07:57.494Z,25.35
2023-04-11T15:11:57.925Z,25.60
2023-04-11T15:15:57.436Z,26.68
2023-04-11T15:19:57.367Z,26.73
2023-04-11T15:23:57.724Z,27.03
2023-04-11T15:27:57.321Z,27.05
2023-04-11T15:31:57.420Z,27.22
2023-04-11T15:35:58.513Z,27.22
2023-04-11T15:39:57.521Z,27.43
2023-04-11T15:43:57.747Z,27.57
2023-04-11T15:47:57.652Z,27.62
2023-04-11T15:51:57.427Z,27.60
2023-04-11T15:55:57.359Z,27.04
2023-04-11T15:59:57.275Z,27.01
2023-04-11T16:03:57.937Z,27.06
2023-04-11T16:07:57.485Z,27.06
2023-04-11T16:11:57.162Z,27.04
2023-04-11T16:15:57.157Z,27.06
2023-04-11T16:19:57.110Z,27.02
2023-04-11T16:23:57.554Z,26.94
2023-04-11T16:27:57.063Z,26.96
2023-04-11T16:31:57.569Z,27.03
2023-04-11T16:35:57.000Z,26.95
2023-04-11T16:39:56.930Z,26.91
2023-04-11T16:43:57.009Z,26.84
2023-04-11T16:47:56.970Z,26.85
2023-04-11T16:51:56.773Z,26.87
2023-04-11T16:55:56.751Z,26.82
2023-04-11T16:59:56.724Z,26.78
2023-04-11T17:03:56.989Z,26.74
2023-04-11T17:07:56.767Z,26.71
2023-04-11T17:11:56.651Z,26.63
2023-04-11T17:15:56.593Z,26.63
2023-04-11T17:19:56.566Z,26.63
2023-04-11T17:23:56.650Z,26.61
2023-04-11T17:27:56.625Z,26.57
2023-04-11T17:31:56.632Z,26.57
2023-04-11T17:35:56.790Z,26.56
2023-04-11T17:39:56.750Z,26.50
2023-04-11T17:43:57.013Z,26.55
2023-04-11T17:47:56.904Z,26.52
2023-04-11T17:51:59.655Z,26.50
2023-04-11T17:55:56.866Z,26.49
2023-04-11T17:59:56.837Z,26.47
2023-04-11T18:03:57.019Z,26.46
2023-04-11T18:07:56.780Z,26.46
2023-04-11T18:11:56.722Z,26.38
2023-04-11T18:15:56.739Z,26.43
2023-04-11T18:19:56.699Z,26.43
2023-04-11T18:23:56.729Z,26.46
2023-04-11T18:27:56.586Z,26.47
2023-04-11T18:32:19.936Z,26.49
2023-04-11T18:35:57.522Z,26.69
2023-04-11T18:39:56.481Z,26.72
2023-04-11T18:43:56.478Z,26.77
2023-04-11T18:48:03.645Z,26.86
2023-04-11T18:51:56.380Z,27.09
2023-04-11T18:55:56.357Z,26.98
2023-04-11T18:59:57.075Z,27.10
2023-04-11T19:03:56.590Z,27.21
2023-04-11T19:07:56.213Z,27.19
2023-04-11T19:11:56.155Z,27.08
2023-04-11T19:15:56.301Z,27.11
2023-04-11T19:19:56.380Z,27.04
2023-04-11T19:23:56.755Z,27.02
2023-04-11T19:27:56.619Z,27.06
2023-04-11T19:31:56.676Z,26.98
2023-04-11T19:35:56.606Z,26.94
2023-04-11T19:39:56.581Z,26.95
2023-04-11T19:43:56.786Z,26.92
2023-04-11T19:47:56.562Z,26.92
2023-04-11T19:51:56.510Z,26.97
2023-04-11T19:55:56.506Z,26.90
2023-04-11T19:59:56.504Z,26.92
2023-04-11T20:03:56.971Z,26.88
2023-04-11T20:07:56.594Z,26.86
2023-04-11T20:11:56.589Z,26.85
2023-04-11T20:15:56.618Z,26.83
2023-04-11T20:19:56.645Z,26.82
2023-04-11T20:23:56.835Z,26.81
2023-04-11T20:27:56.602Z,26.81
2023-04-11T20:31:56.596Z,26.86
2023-04-11T20:35:56.692Z,26.84
2023-04-11T20:39:56.597Z,26.84
2023-04-11T20:43:56.789Z,26.88
2023-04-11T20:47:56.715Z,26.91
2023-04-11T20:51:56.831Z,26.90
2023-04-11T20:55:56.868Z,26.93
2023-04-11T20:59:56.926Z,26.93
2023-04-11T21:03:57.549Z,26.91
2023-04-11T21:07:57.095Z,26.90
2023-04-11T21:11:57.205Z,26.95
2023-04-11T21:15:57.354Z,26.85
2023-04-11T21:19:57.473Z,26.82
2023-04-11T21:23:57.739Z,26.79
2023-04-11T21:27:57.786Z,26.79
2023-04-11T21:31:57.906Z,26.83
2023-04-11T21:35:58.208Z,26.82
2023-04-11T21:39:58.322Z,26.86
2023-04-11T21:43:58.735Z,26.86
2023-04-11T21:47:58.815Z,26.89
2023-04-11T21:51:58.730Z,26.89
2023-04-11T21:55:58.668Z,26.88
2023-04-11T21:59:58.673Z,26.88
2023-04-11T22:03:59.456Z,26.84
2023-04-11T22:07:58.550Z,26.95
2023-04-11T22:11:58.513Z,26.88
2023-04-11T22:15:58.623Z,26.92
2023-04-11T22:19:58.505Z,26.93
2023-04-11T22:23:58.472Z,26.90
2023-04-11T22:27:58.629Z,26.89
2023-04-11T22:31:58.734Z,26.91
2023-04-11T22:35:58.933Z,26.95
2023-04-11T22:39:58.988Z,26.87
2023-04-11T22:43:59.285Z,26.91
2023-04-11T22:47:59.162Z,26.91
2023-04-11T22:51:59.310Z,26.92
2023-04-11T22:55:59.216Z,26.95
2023-04-11T22:59:59.244Z,26.92
2023-04-11T23:03:59.404Z,26.88
2023-04-11T23:07:59.218Z,26.89
2023-04-11T23:11:59.205Z,26.91
2023-04-11T23:15:59.137Z,26.94
2023-04-11T23:19:59.180Z,26.88
2023-04-11T23:23:59.104Z,26.88
2023-04-11T23:27:59.099Z,26.90
2023-04-11T23:31:59.115Z,26.88
2023-04-11T23:35:59.178Z,26.92
2023-04-11T23:39:59.094Z,26.85
2023-04-11T23:43:59.233Z,26.92
2023-04-11T23:47:59.231Z,26.88
2023-04-11T23:51:59.210Z,26.92
2023-04-11T23:55:59.211Z,26.87
2023-04-11T23:59:59.302Z,26.89
